sensor_id;sensor_type;location;lat;lon;timestamp;pressure;altitude;pressure_sealevel;temperature;humidity
17855;BME280;9053;53.358;6.382;2022-10-17T00:02:07;101699.00;;;12.73;100.00
17855;BME280;9053;53.358;6.382;2022-10-17T00:04:37;101708.56;;;12.71;100.00
17855;BME280;9053;53.358;6.382;2022-10-17T00:07:06;101705.88;;;12.69;100.00
17855;BME280;9053;53.358;6.382;2022-10-17T00:09:41;101709.41;;;12.70;100.00
17855;BME280;9053;53.358;6.382;2022-10-17T00:12:11;101710.19;;;12.67;100.00
17855;BME280;9053;53.358;6.382;2022-10-17T00:14:40;101712.03;;;12.70;100.00
17855;BME280;9053;53.358;6.382;2022-10-17T00:17:10;101720.91;;;12.72;100.00
17855;BME280;9053;53.358;6.382;2022-10-17T00:19:41;101715.66;;;12.72;100.00
17855;BME280;9053;53.358;6.382;2022-10-17T00:22:11;101706.84;;;12.71;100.00
17855;BME280;9053;53.358;6.382;2022-10-17T00:24:44;101704.13;;;12.70;100.00
17855;BME280;9053;53.358;6.382;2022-10-17T00:27:14;101698.72;;;12.67;100.00
17855;BME280;9053;53.358;6.382;2022-10-17T00:29:47;101701.38;;;12.67;100.00
17855;BME280;9053;53.358;6.382;2022-10-17T00:32:17;101698.72;;;12.67;100.00
17855;BME280;9053;53.358;6.382;2022-10-17T00:34:47;101688.19;;;12.67;100.00
17855;BME280;9053;53.358;6.382;2022-10-17T00:37:17;101686.38;;;12.66;100.00
17855;BME280;9053;53.358;6.382;2022-10-17T00:39:49;101686.50;;;12.69;100.00
17855;BME280;9053;53.358;6.382;2022-10-17T00:42:19;101694.50;;;12.70;100.00
17855;BME280;9053;53.358;6.382;2022-10-17T00:45:02;101694.59;;;12.73;100.00
17855;BME280;9053;53.358;6.382;2022-10-17T00:47:35;101687.66;;;12.75;100.00
17855;BME280;9053;53.358;6.382;2022-10-17T00:50:06;101688.59;;;12.77;100.00
17855;BME280;9053;53.358;6.382;2022-10-17T00:52:36;101689.53;;;12.80;100.00
17855;BME280;9053;53.358;6.382;2022-10-17T00:55:12;101681.69;;;12.81;100.00
17855;BME280;9053;53.358;6.382;2022-10-17T00:57:44;101688.72;;;12.81;100.00
17855;BME280;9053;53.358;6.382;2022-10-17T01:00:15;101679.84;;;12.78;100.00
17855;BME280;9053;53.358;6.382;2022-10-17T01:02:45;101686.09;;;12.81;100.00
17855;BME280;9053;53.358;6.382;2022-10-17T01:05:15;101689.63;;;12.81;100.00
17855;BME280;9053;53.358;6.382;2022-10-17T01:07:48;101675.53;;;12.81;100.00
17855;BME280;9053;53.358;6.382;2022-10-17T01:10:26;101674.63;;;12.80;100.00
17855;BME280;9053;53.358;6.382;2022-10-17T01:13:07;101673.69;;;12.80;100.00
17855;BME280;9053;53.358;6.382;2022-10-17T01:15:51;101661.38;;;12.78;100.00
17855;BME280;9053;53.358;6.382;2022-10-17T01:18:32;101658.72;;;12.78;100.00
17855;BME280;9053;53.358;6.382;2022-10-17T01:21:39;101657.03;;;12.81;100.00
17855;BME280;9053;53.358;6.382;2022-10-17T01:24:40;101659.69;;;12.81;100.00
17855;BME280;9053;53.358;6.382;2022-10-17T01:33:30;101654.50;;;12.84;100.00
17855;BME280;9053;53.358;6.382;2022-10-17T01:36:07;101651.88;;;12.84;100.00
17855;BME280;9053;53.358;6.382;2022-10-17T01:38:45;101653.66;;;12.85;100.00
17855;BME280;9053;53.358;6.382;2022-10-17T01:41:24;101657.25;;;12.87;100.00
17855;BME280;9053;53.358;6.382;2022-10-17T01:43:59;101645.03;;;12.89;100.00
17855;BME280;9053;53.358;6.382;2022-10-17T01:46:34;101638.06;;;12.91;100.00
17855;BME280;9053;53.358;6.382;2022-10-17T01:49:09;101631.94;;;12.92;100.00
17855;BME280;9053;53.358;6.382;2022-10-17T01:51:43;101628.41;;;12.91;100.00
17855;BME280;9053;53.358;6.382;2022-10-17T01:54:19;101625.88;;;12.94;100.00
17855;BME280;9053;53.358;6.382;2022-10-17T01:56:54;101620.59;;;12.94;100.00
17855;BME280;9053;53.358;6.382;2022-10-17T01:59:29;101618.91;;;12.96;100.00
17855;BME280;9053;53.358;6.382;2022-10-17T02:02:00;101613.69;;;12.98;100.00
17855;BME280;9053;53.358;6.382;2022-10-17T02:04:33;101600.59;;;13.01;100.00
17855;BME280;9053;53.358;6.382;2022-10-17T02:07:07;101582.22;;;13.04;100.00
17855;BME280;9053;53.358;6.382;2022-10-17T02:09:37;101585.81;;;13.06;100.00
17855;BME280;9053;53.358;6.382;2022-10-17T02:15:27;101577.91;;;13.08;100.00
17855;BME280;9053;53.358;6.382;2022-10-17T02:18:06;101573.50;;;13.07;100.00
17855;BME280;9053;53.358;6.382;2022-10-17T02:20:49;101564.69;;;13.06;100.00
17855;BME280;9053;53.358;6.382;2022-10-17T02:23:27;101561.09;;;13.04;100.00
17855;BME280;9053;53.358;6.382;2022-10-17T02:26:07;101561.16;;;13.06;100.00
17855;BME280;9053;53.358;6.382;2022-10-17T02:28:41;101561.16;;;13.06;100.00
17855;BME280;9053;53.358;6.382;2022-10-17T02:31:15;101556.03;;;13.10;100.00
17855;BME280;9053;53.358;6.382;2022-10-17T02:33:48;101547.25;;;13.11;100.00
17855;BME280;9053;53.358;6.382;2022-10-17T02:36:25;101539.31;;;13.11;100.00
17855;BME280;9053;53.358;6.382;2022-10-17T02:38:58;101534.03;;;13.11;100.00
17855;BME280;9053;53.358;6.382;2022-10-17T02:41:30;101536.75;;;13.13;100.00
17855;BME280;9053;53.358;6.382;2022-10-17T02:44:02;101527.09;;;13.13;100.00
17855;BME280;9053;53.358;6.382;2022-10-17T02:46:34;101523.59;;;13.14;100.00
17855;BME280;9053;53.358;6.382;2022-10-17T02:49:11;101526.19;;;13.13;100.00
17855;BME280;9053;53.358;6.382;2022-10-17T02:51:53;101528.03;;;13.15;100.00
17855;BME280;9053;53.358;6.382;2022-10-17T02:54:30;101535.91;;;13.14;100.00
17855;BME280;9053;53.358;6.382;2022-10-17T02:57:07;101533.25;;;13.14;100.00
17855;BME280;9053;53.358;6.382;2022-10-17T02:59:41;101530.63;;;13.14;100.00
17855;BME280;9053;53.358;6.382;2022-10-17T03:02:12;101518.31;;;13.14;100.00
17855;BME280;9053;53.358;6.382;2022-10-17T03:04:42;101519.19;;;13.15;100.00
17855;BME280;9053;53.358;6.382;2022-10-17T03:07:15;101516.56;;;13.15;100.00
17855;BME280;9053;53.358;6.382;2022-10-17T03:09:45;101518.38;;;13.16;100.00
17855;BME280;9053;53.358;6.382;2022-10-17T03:12:14;101510.44;;;13.16;100.00
17855;BME280;9053;53.358;6.382;2022-10-17T03:14:44;101507.81;;;13.16;100.00
17855;BME280;9053;53.358;6.382;2022-10-17T03:17:14;101503.34;;;13.15;100.00
17855;BME280;9053;53.358;6.382;2022-10-17T03:19:44;101506.94;;;13.17;100.00
17855;BME280;9053;53.358;6.382;2022-10-17T03:22:16;101502.53;;;13.16;100.00
17855;BME280;9053;53.358;6.382;2022-10-17T03:24:46;101499.88;;;13.16;100.00
17855;BME280;9053;53.358;6.382;2022-10-17T03:27:15;101497.25;;;13.16;100.00
17855;BME280;9053;53.358;6.382;2022-10-17T03:29:45;101497.25;;;13.16;100.00
17855;BME280;9053;53.358;6.382;2022-10-17T03:32:15;101496.38;;;13.17;100.00
17855;BME280;9053;53.358;6.382;2022-10-17T03:34:45;101491.16;;;13.18;100.00
17855;BME280;9053;53.358;6.382;2022-10-17T03:37:17;101485.00;;;13.19;100.00
17855;BME280;9053;53.358;6.382;2022-10-17T03:39:47;101482.44;;;13.21;100.00
17855;BME280;9053;53.358;6.382;2022-10-17T03:42:17;101470.13;;;13.21;100.00
17855;BME280;9053;53.358;6.382;2022-10-17T03:44:46;101467.53;;;13.23;100.00
17855;BME280;9053;53.358;6.382;2022-10-17T03:47:16;101480.84;;;13.26;100.00
17855;BME280;9053;53.358;6.382;2022-10-17T03:49:46;101486.13;;;13.26;100.00
17855;BME280;9053;53.358;6.382;2022-10-17T03:52:18;101501.16;;;13.27;100.00
17855;BME280;9053;53.358;6.382;2022-10-17T03:54:48;101483.63;;;13.29;100.00
17855;BME280;9053;53.358;6.382;2022-10-17T03:57:18;101483.69;;;13.31;100.00
17855;BME280;9053;53.358;6.382;2022-10-17T03:59:49;101501.31;;;13.32;100.00
17855;BME280;9053;53.358;6.382;2022-10-17T04:02:19;101496.91;;;13.32;100.00
17855;BME280;9053;53.358;6.382;2022-10-17T04:04:49;101495.22;;;13.34;100.00
17855;BME280;9053;53.358;6.382;2022-10-17T04:07:21;101491.84;;;13.38;100.00
17855;BME280;9053;53.358;6.382;2022-10-17T04:09:51;101497.13;;;13.38;100.00
17855;BME280;9053;53.358;6.382;2022-10-17T04:12:21;101489.22;;;13.38;100.00
17855;BME280;9053;53.358;6.382;2022-10-17T04:14:51;101492.75;;;13.39;100.00
17855;BME280;9053;53.358;6.382;2022-10-17T04:17:20;101483.06;;;13.39;100.00
17855;BME280;9053;53.358;6.382;2022-10-17T04:19:50;101488.34;;;13.39;100.00
17855;BME280;9053;53.358;6.382;2022-10-17T04:22:23;101489.25;;;13.40;100.00
17855;BME280;9053;53.358;6.382;2022-10-17T04:24:53;101492.84;;;13.42;100.00
17855;BME280;9053;53.358;6.382;2022-10-17T04:27:23;101497.28;;;13.43;100.00
17855;BME280;9053;53.358;6.382;2022-10-17T04:29:53;101495.56;;;13.45;100.00
17855;BME280;9053;53.358;6.382;2022-10-17T04:32:22;101498.34;;;13.48;100.00
17855;BME280;9053;53.358;6.382;2022-10-17T04:34:53;101504.59;;;13.52;100.00
17855;BME280;9053;53.358;6.382;2022-10-17T04:37:27;101495.81;;;13.53;100.00
17855;BME280;9053;53.358;6.382;2022-10-17T04:39:57;101491.53;;;13.56;100.00
17855;BME280;9053;53.358;6.382;2022-10-17T04:42:28;101491.63;;;13.59;100.00
17855;BME280;9053;53.358;6.382;2022-10-17T04:44:58;101478.50;;;13.61;100.00
17855;BME280;9053;53.358;6.382;2022-10-17T04:47:28;101476.81;;;13.64;100.00
17855;BME280;9053;53.358;6.382;2022-10-17T04:49:57;101484.81;;;13.66;100.00
17855;BME280;9053;53.358;6.382;2022-10-17T04:52:30;101491.94;;;13.69;100.00
17855;BME280;9053;53.358;6.382;2022-10-17T04:55:00;101491.97;;;13.70;100.00
17855;BME280;9053;53.358;6.382;2022-10-17T04:57:30;101493.78;;;13.71;100.00
17855;BME280;9053;53.358;6.382;2022-10-17T05:00:04;101497.34;;;13.73;100.00
17855;BME280;9053;53.358;6.382;2022-10-17T05:02:35;101500.94;;;13.75;100.00
17855;BME280;9053;53.358;6.382;2022-10-17T05:05:05;101488.66;;;13.77;100.00
17855;BME280;9053;53.358;6.382;2022-10-17T05:07:41;101472.91;;;13.80;100.00
17855;BME280;9053;53.358;6.382;2022-10-17T05:10:10;101471.19;;;13.81;100.00
17855;BME280;9053;53.358;6.382;2022-10-17T05:12:40;101470.47;;;13.87;100.00
17855;BME280;9053;53.358;6.382;2022-10-17T05:15:10;101468.75;;;13.89;100.00
17855;BME280;9053;53.358;6.382;2022-10-17T05:17:40;101477.63;;;13.91;100.00
17855;BME280;9053;53.358;6.382;2022-10-17T05:20:10;101461.88;;;13.94;100.00
17855;BME280;9053;53.358;6.382;2022-10-17T05:22:43;101457.53;;;13.97;100.00
17855;BME280;9053;53.358;6.382;2022-10-17T05:25:13;101454.97;;;13.99;100.00
17855;BME280;9053;53.358;6.382;2022-10-17T05:27:43;101468.28;;;14.02;100.00
17855;BME280;9053;53.358;6.382;2022-10-17T05:30:13;101453.34;;;14.04;100.00
17855;BME280;9053;53.358;6.382;2022-10-17T05:32:42;101450.72;;;14.05;100.00
17855;BME280;9053;53.358;6.382;2022-10-17T05:35:12;101454.31;;;14.07;100.00
17855;BME280;9053;53.358;6.382;2022-10-17T05:37:45;101454.38;;;14.09;100.00
17855;BME280;9053;53.358;6.382;2022-10-17T05:40:15;101448.28;;;14.12;100.00
17855;BME280;9053;53.358;6.382;2022-10-17T05:42:45;101444.78;;;14.13;100.00
17855;BME280;9053;53.358;6.382;2022-10-17T05:45:15;101438.66;;;14.14;100.00
17855;BME280;9053;53.358;6.382;2022-10-17T05:47:45;101444.91;;;14.17;100.00
17855;BME280;9053;53.358;6.382;2022-10-17T05:50:15;101454.63;;;14.18;100.00
17855;BME280;9053;53.358;6.382;2022-10-17T05:52:52;101460.84;;;14.19;100.00
17855;BME280;9053;53.358;6.382;2022-10-17T05:55:22;101470.56;;;14.20;100.00
17855;BME280;9053;53.358;6.382;2022-10-17T05:57:52;101456.47;;;14.21;100.00
17855;BME280;9053;53.358;6.382;2022-10-17T06:00:21;101445.88;;;14.21;100.00
17855;BME280;9053;53.358;6.382;2022-10-17T06:02:51;101441.50;;;14.21;100.00
17855;BME280;9053;53.358;6.382;2022-10-17T06:05:21;101449.44;;;14.21;100.00
17855;BME280;9053;53.358;6.382;2022-10-17T06:07:54;101461.81;;;14.22;100.00
17855;BME280;9053;53.358;6.382;2022-10-17T06:10:27;101453.00;;;14.23;100.00
17855;BME280;9053;53.358;6.382;2022-10-17T06:12:57;101440.72;;;14.25;100.00
17855;BME280;9053;53.358;6.382;2022-10-17T06:15:27;101460.19;;;14.27;100.00
17855;BME280;9053;53.358;6.382;2022-10-17T06:17:57;101463.78;;;14.29;100.00
17855;BME280;9053;53.358;6.382;2022-10-17T06:20:26;101470.03;;;14.32;100.00
17855;BME280;9053;53.358;6.382;2022-10-17T06:22:59;101480.69;;;14.35;100.00
17855;BME280;9053;53.358;6.382;2022-10-17T06:25:29;101482.47;;;14.36;100.00
17855;BME280;9053;53.358;6.382;2022-10-17T06:27:59;101483.34;;;14.36;100.00
17855;BME280;9053;53.358;6.382;2022-10-17T06:30:29;101490.47;;;14.39;100.00
17855;BME280;9053;53.358;6.382;2022-10-17T06:32:59;101487.94;;;14.42;100.00
17855;BME280;9053;53.358;6.382;2022-10-17T06:35:29;101497.66;;;14.43;100.00
17855;BME280;9053;53.358;6.382;2022-10-17T06:38:02;101496.84;;;14.44;100.00
17855;BME280;9053;53.358;6.382;2022-10-17T06:40:32;101509.19;;;14.45;100.00
17855;BME280;9053;53.358;6.382;2022-10-17T06:43:02;101523.38;;;14.47;100.00
17855;BME280;9053;53.358;6.382;2022-10-17T06:45:31;101514.63;;;14.49;100.00
17855;BME280;9053;53.358;6.382;2022-10-17T06:48:01;101519.94;;;14.49;100.00
17855;BME280;9053;53.358;6.382;2022-10-17T06:50:31;101526.16;;;14.52;100.00
17855;BME280;9053;53.358;6.382;2022-10-17T06:53:04;101525.38;;;14.54;100.00
17855;BME280;9053;53.358;6.382;2022-10-17T06:55:33;101518.34;;;14.55;100.00
17855;BME280;9053;53.358;6.382;2022-10-17T06:58:03;101525.47;;;14.57;100.00
17855;BME280;9053;53.358;6.382;2022-10-17T07:00:33;101521.16;;;14.61;100.00
17855;BME280;9053;53.358;6.382;2022-10-17T07:03:03;101525.63;;;14.63;100.00
17855;BME280;9053;53.358;6.382;2022-10-17T07:05:33;101509.81;;;14.66;100.00
17855;BME280;9053;53.358;6.382;2022-10-17T07:08:06;101502.81;;;14.68;100.00
17855;BME280;9053;53.358;6.382;2022-10-17T07:10:37;101516.13;;;14.71;100.00
17855;BME280;9053;53.358;6.382;2022-10-17T07:13:06;101518.91;;;14.75;100.00
17855;BME280;9053;53.358;6.382;2022-10-17T07:15:37;101527.72;;;14.75;100.00
17855;BME280;9053;53.358;6.382;2022-10-17T07:18:07;101526.06;;;14.79;100.00
17855;BME280;9053;53.358;6.382;2022-10-17T07:20:37;101528.75;;;14.80;100.00
17855;BME280;9053;53.358;6.382;2022-10-17T07:23:09;101527.06;;;14.84;100.00
17855;BME280;9053;53.358;6.382;2022-10-17T07:25:39;101536.84;;;14.86;100.00
17855;BME280;9053;53.358;6.382;2022-10-17T07:28:08;101535.19;;;14.90;100.00
17855;BME280;9053;53.358;6.382;2022-10-17T07:30:38;101540.53;;;14.91;100.00
17855;BME280;9053;53.358;6.382;2022-10-17T07:33:08;101546.81;;;14.95;100.00
17855;BME280;9053;53.358;6.382;2022-10-17T07:35:38;101546.03;;;14.99;100.00
17855;BME280;9053;53.358;6.382;2022-10-17T07:38:12;101535.59;;;15.05;100.00
17855;BME280;9053;53.358;6.382;2022-10-17T07:40:41;101546.28;;;15.08;100.00
17855;BME280;9053;53.358;6.382;2022-10-17T07:43:11;101526.09;;;15.13;100.00
17855;BME280;9053;53.358;6.382;2022-10-17T07:45:41;101535.94;;;15.18;100.00
17855;BME280;9053;53.358;6.382;2022-10-17T07:48:11;101535.13;;;15.20;100.00
17855;BME280;9053;53.358;6.382;2022-10-17T07:50:40;101543.19;;;15.25;100.00
17855;BME280;9053;53.358;6.382;2022-10-17T07:53:13;101553.00;;;15.29;100.00
17855;BME280;9053;53.358;6.382;2022-10-17T07:55:43;101561.88;;;15.31;100.00
17855;BME280;9053;53.358;6.382;2022-10-17T07:58:15;101565.53;;;15.36;100.00
17855;BME280;9053;53.358;6.382;2022-10-17T08:00:45;101556.84;;;15.42;100.00
17855;BME280;9053;53.358;6.382;2022-10-17T08:03:17;101565.81;;;15.47;100.00
17855;BME280;9053;53.358;6.382;2022-10-17T08:05:47;101570.34;;;15.51;100.00
17855;BME280;9053;53.358;6.382;2022-10-17T08:08:19;101570.47;;;15.55;100.00
17855;BME280;9053;53.358;6.382;2022-10-17T08:10:49;101574.16;;;15.62;100.00
17855;BME280;9053;53.358;6.382;2022-10-17T08:13:19;101570.72;;;15.66;100.00
17855;BME280;9053;53.358;6.382;2022-10-17T08:15:48;101572.63;;;15.70;100.00
17855;BME280;9053;53.358;6.382;2022-10-17T08:18:18;101578.91;;;15.74;100.00
17855;BME280;9053;53.358;6.382;2022-10-17T08:20:48;101573.72;;;15.78;100.00
17855;BME280;9053;53.358;6.382;2022-10-17T08:23:28;101576.47;;;15.83;100.00
17855;BME280;9053;53.358;6.382;2022-10-17T08:25:58;101578.31;;;15.87;100.00
17855;BME280;9053;53.358;6.382;2022-10-17T08:28:28;101576.69;;;15.92;100.00
17855;BME280;9053;53.358;6.382;2022-10-17T08:31:03;101569.72;;;15.97;100.00
17855;BME280;9053;53.358;6.382;2022-10-17T08:33:33;101566.25;;;16.00;100.00
17855;BME280;9053;53.358;6.382;2022-10-17T08:36:04;101555.69;;;16.01;100.00
17855;BME280;9053;53.358;6.382;2022-10-17T08:38:37;101554.91;;;16.07;100.00
17855;BME280;9053;53.358;6.382;2022-10-17T08:41:21;101566.50;;;16.11;100.00
17855;BME280;9053;53.358;6.382;2022-10-17T08:44:04;101571.00;;;16.15;100.00
17855;BME280;9053;53.358;6.382;2022-10-17T08:46:40;101572.88;;;16.19;100.00
17855;BME280;9053;53.358;6.382;2022-10-17T08:49:15;101574.75;;;16.23;100.00
17855;BME280;9053;53.358;6.382;2022-10-17T08:51:51;101591.69;;;16.28;100.00
17855;BME280;9053;53.358;6.382;2022-10-17T08:54:33;101580.25;;;16.32;100.00
17855;BME280;9053;53.358;6.382;2022-10-17T08:57:10;101576.81;;;16.36;100.00
17855;BME280;9053;53.358;6.382;2022-10-17T08:59:42;101591.94;;;16.40;100.00
17855;BME280;9053;53.358;6.382;2022-10-17T09:02:23;101616.84;;;16.46;100.00
17855;BME280;9053;53.358;6.382;2022-10-17T09:07:59;101666.53;;;16.53;100.00
17855;BME280;9053;53.358;6.382;2022-10-17T09:10:42;101676.34;;;16.55;100.00
17855;BME280;9053;53.358;6.382;2022-10-17T09:13:25;101687.06;;;16.60;100.00
17855;BME280;9053;53.358;6.382;2022-10-17T09:16:22;101691.59;;;16.64;100.00
17855;BME280;9053;53.358;6.382;2022-10-17T09:19:02;101681.91;;;16.67;100.00
17855;BME280;9053;53.358;6.382;2022-10-17T09:21:41;101688.22;;;16.71;100.00
17855;BME280;9053;53.358;6.382;2022-10-17T09:24:15;101711.28;;;16.74;100.00
17855;BME280;9053;53.358;6.382;2022-10-17T09:26:50;101715.78;;;16.76;100.00
17855;BME280;9053;53.358;6.382;2022-10-17T09:29:23;101725.53;;;16.77;100.00
17855;BME280;9053;53.358;6.382;2022-10-17T09:32:07;101720.31;;;16.80;100.00
17855;BME280;9053;53.358;6.382;2022-10-17T09:34:39;101726.53;;;16.81;100.00
17855;BME280;9053;53.358;6.382;2022-10-17T09:37:13;101729.28;;;16.85;100.00
17855;BME280;9053;53.358;6.382;2022-10-17T09:39:44;101734.69;;;16.89;100.00
17855;BME280;9053;53.358;6.382;2022-10-17T09:42:19;101742.66;;;16.90;100.00
17855;BME280;9053;53.358;6.382;2022-10-17T09:44:55;101756.84;;;16.91;100.00
17855;BME280;9053;53.358;6.382;2022-10-17T09:47:29;101765.75;;;16.93;100.00
17855;BME280;9053;53.358;6.382;2022-10-17T09:50:00;101767.56;;;16.94;100.00
17855;BME280;9053;53.358;6.382;2022-10-17T09:52:33;101764.91;;;16.94;100.00
17855;BME280;9053;53.358;6.382;2022-10-17T09:55:10;101763.16;;;16.96;100.00
17855;BME280;9053;53.358;6.382;2022-10-17T09:57:55;101756.94;;;16.95;100.00
17855;BME280;9053;53.358;6.382;2022-10-17T10:00:26;101752.50;;;16.94;100.00
17855;BME280;9053;53.358;6.382;2022-10-17T10:03:12;101756.88;;;16.92;100.00
17855;BME280;9053;53.358;6.382;2022-10-17T10:05:59;101757.78;;;16.91;100.00
17855;BME280;9053;53.358;6.382;2022-10-17T10:08:33;101763.97;;;16.92;100.00
17855;BME280;9053;53.358;6.382;2022-10-17T10:11:05;101755.06;;;16.90;100.00
17855;BME280;9053;53.358;6.382;2022-10-17T10:13:43;101755.94;;;16.89;100.00
17855;BME280;9053;53.358;6.382;2022-10-17T10:16:21;101758.59;;;16.89;100.00
17855;BME280;9053;53.358;6.382;2022-10-17T10:18:51;101760.31;;;16.88;100.00
17855;BME280;9053;53.358;6.382;2022-10-17T10:21:23;101759.44;;;16.87;100.00
17855;BME280;9053;53.358;6.382;2022-10-17T10:24:04;101764.81;;;16.89;100.00
17855;BME280;9053;53.358;6.382;2022-10-17T10:26:38;101767.41;;;16.87;100.00
17855;BME280;9053;53.358;6.382;2022-10-17T10:29:22;101756.81;;;16.89;100.00
17855;BME280;9053;53.358;6.382;2022-10-17T10:31:54;101756.84;;;16.91;100.00
17855;BME280;9053;53.358;6.382;2022-10-17T10:34:27;101746.31;;;16.94;100.00
17855;BME280;9053;53.358;6.382;2022-10-17T10:37:00;101734.84;;;16.96;100.00
17855;BME280;9053;53.358;6.382;2022-10-17T10:39:40;101755.22;;;16.97;100.00
17855;BME280;9053;53.358;6.382;2022-10-17T10:42:19;101763.25;;;16.99;100.00
17855;BME280;9053;53.358;6.382;2022-10-17T10:44:56;101757.94;;;16.99;100.00
17855;BME280;9053;53.358;6.382;2022-10-17T10:47:27;101757.94;;;16.99;100.00
17855;BME280;9053;53.358;6.382;2022-10-17T10:50:27;101750.88;;;17.01;100.00
17855;BME280;9053;53.358;6.382;2022-10-17T10:53:12;101749.16;;;17.03;100.00
17855;BME280;9053;53.358;6.382;2022-10-17T10:55:47;101738.50;;;17.01;100.00
17855;BME280;9053;53.358;6.382;2022-10-17T10:58:29;101737.66;;;17.04;100.00
17855;BME280;9053;53.358;6.382;2022-10-17T11:01:20;101719.13;;;17.07;100.00
17855;BME280;9053;53.358;6.382;2022-10-17T11:04:06;101722.72;;;17.09;100.00
17855;BME280;9053;53.358;6.382;2022-10-17T11:06:42;101728.97;;;17.11;100.00
17855;BME280;9053;53.358;6.382;2022-10-17T11:09:22;101727.19;;;17.12;100.00
17855;BME280;9053;53.358;6.382;2022-10-17T11:12:01;101753.00;;;17.17;100.00
17855;BME280;9053;53.358;6.382;2022-10-17T11:14:39;101747.69;;;17.17;100.00
17855;BME280;9053;53.358;6.382;2022-10-17T11:17:18;101753.06;;;17.20;100.00
17855;BME280;9053;53.358;6.382;2022-10-17T11:19:58;101766.41;;;17.23;100.00
17855;BME280;9053;53.358;6.382;2022-10-17T11:22:31;101779.72;;;17.23;100.00
17855;BME280;9053;53.358;6.382;2022-10-17T11:25:05;101786.78;;;17.21;100.00
17855;BME280;9053;53.358;6.382;2022-10-17T11:27:38;101791.16;;;17.21;100.00
17855;BME280;9053;53.358;6.382;2022-10-17T11:30:11;101800.03;;;17.20;100.00
17855;BME280;9053;53.358;6.382;2022-10-17T11:32:47;101796.44;;;17.18;100.00
17855;BME280;9053;53.358;6.382;2022-10-17T11:35:23;101793.75;;;17.16;100.00
17855;BME280;9053;53.358;6.382;2022-10-17T11:38:05;101796.44;;;17.18;100.00
17855;BME280;9053;53.358;6.382;2022-10-17T11:40:39;101801.75;;;17.18;100.00
17855;BME280;9053;53.358;6.382;2022-10-17T11:43:14;101806.16;;;17.17;100.00
17855;BME280;9053;53.358;6.382;2022-10-17T11:45:51;101809.72;;;17.18;100.00
17855;BME280;9053;53.358;6.382;2022-10-17T11:48:29;101814.19;;;17.20;100.00
17855;BME280;9053;53.358;6.382;2022-10-17T11:51:06;101814.25;;;17.23;100.00
17855;BME280;9053;53.358;6.382;2022-10-17T11:54:03;101816.94;;;17.23;100.00
17855;BME280;9053;53.358;6.382;2022-10-17T11:56:41;101832.03;;;17.24;100.00
17855;BME280;9053;53.358;6.382;2022-10-17T11:59:30;101832.91;;;17.25;100.00
17855;BME280;9053;53.358;6.382;2022-10-17T12:02:08;101838.19;;;17.23;100.00
17855;BME280;9053;53.358;6.382;2022-10-17T12:04:49;101850.59;;;17.23;100.00
17855;BME280;9053;53.358;6.382;2022-10-17T12:07:26;101848.81;;;17.23;100.00
17855;BME280;9053;53.358;6.382;2022-10-17T12:10:06;101839.94;;;17.21;100.00
17855;BME280;9053;53.358;6.382;2022-10-17T12:12:45;101841.66;;;17.19;100.00
17855;BME280;9053;53.358;6.382;2022-10-17T12:15:36;101848.81;;;17.22;100.00
17855;BME280;9053;53.358;6.382;2022-10-17T12:18:15;101847.00;;;17.21;100.00
17855;BME280;9053;53.358;6.382;2022-10-17T12:20:54;101846.16;;;17.22;100.00
17855;BME280;9053;53.358;6.382;2022-10-17T12:23:26;101845.25;;;17.21;100.00
17855;BME280;9053;53.358;6.382;2022-10-17T12:25:58;101844.38;;;17.22;100.00
17855;BME280;9053;53.358;6.382;2022-10-17T12:28:32;101841.78;;;17.24;100.00
17855;BME280;9053;53.358;6.382;2022-10-17T12:31:04;101851.59;;;17.28;100.00
17855;BME280;9053;53.358;6.382;2022-10-17T12:33:37;101852.56;;;17.32;100.00
17855;BME280;9053;53.358;6.382;2022-10-17T12:36:37;101854.34;;;17.33;100.00
17855;BME280;9053;53.358;6.382;2022-10-17T12:51:21;101868.44;;;17.28;100.00
17855;BME280;9053;53.358;6.382;2022-10-17T12:54:11;101877.22;;;17.24;100.00
17855;BME280;9053;53.358;6.382;2022-10-17T12:56:44;101876.25;;;17.21;100.00
17855;BME280;9053;53.358;6.382;2022-10-17T12:59:20;101877.06;;;17.18;100.00
17855;BME280;9053;53.358;6.382;2022-10-17T13:01:59;101887.63;;;17.15;100.00
17855;BME280;9053;53.358;6.382;2022-10-17T13:04:30;101890.28;;;17.14;100.00
17855;BME280;9053;53.358;6.382;2022-10-17T13:07:04;101887.63;;;17.14;100.00
17855;BME280;9053;53.358;6.382;2022-10-17T13:09:41;101896.41;;;17.11;100.00
17855;BME280;9053;53.358;6.382;2022-10-17T13:12:14;101891.00;;;17.08;100.00
17855;BME280;9053;53.358;6.382;2022-10-17T13:14:47;101901.63;;;17.08;100.00
17855;BME280;9053;53.358;6.382;2022-10-17T13:17:24;101900.72;;;17.06;100.00
17855;BME280;9053;53.358;6.382;2022-10-17T13:19:56;101890.88;;;17.02;100.00
17855;BME280;9053;53.358;6.382;2022-10-17T13:22:29;101894.41;;;17.02;100.00
17855;BME280;9053;53.358;6.382;2022-10-17T13:25:14;101898.84;;;17.02;100.00
17855;BME280;9053;53.358;6.382;2022-10-17T13:27:44;101905.00;;;17.01;100.00
17855;BME280;9053;53.358;6.382;2022-10-17T13:30:25;101907.56;;;16.96;100.00
17855;BME280;9053;53.358;6.382;2022-10-17T13:32:58;101903.03;;;16.92;100.00
17855;BME280;9053;53.358;6.382;2022-10-17T13:35:31;101908.28;;;16.91;100.00
17855;BME280;9053;53.358;6.382;2022-10-17T13:38:28;101907.47;;;16.92;100.00
17855;BME280;9053;53.358;6.382;2022-10-17T13:41:09;101915.50;;;16.95;100.00
17855;BME280;9053;53.358;6.382;2022-10-17T13:44:02;101911.97;;;16.96;100.00
17855;BME280;9053;53.358;6.382;2022-10-17T13:46:33;101921.75;;;16.97;100.00
17855;BME280;9053;53.358;6.382;2022-10-17T13:49:11;101929.75;;;16.98;100.00
17855;BME280;9053;53.358;6.382;2022-10-17T13:51:44;101922.59;;;16.96;100.00